createdAt,value
2019-02-02T00:00:02.918Z,5.87
2019-02-02T00:02:33.397Z,5.88
2019-02-02T00:05:05.101Z,5.86
2019-02-02T00:07:36.973Z,5.83
2019-02-02T00:10:08.357Z,5.75
2019-02-02T00:12:39.337Z,5.54
2019-02-02T00:15:10.002Z,5.52
2019-02-02T00:17:41.403Z,5.48
2019-02-02T00:20:12.610Z,5.44
2019-02-02T00:22:43.314Z,5.42
2019-02-02T00:25:14.228Z,5.43
2019-02-02T00:27:44.722Z,5.45
2019-02-02T00:30:15.640Z,5.47
2019-02-02T00:32:46.399Z,5.49
2019-02-02T00:35:17.226Z,5.43
2019-02-02T00:37:47.878Z,5.52
2019-02-02T00:40:19.743Z,5.57
2019-02-02T00:42:50.356Z,5.59
2019-02-02T00:45:21.431Z,5.68
2019-02-02T00:47:52.949Z,5.66
2019-02-02T00:50:23.459Z,5.64
2019-02-02T00:52:54.299Z,5.61
2019-02-02T00:55:24.849Z,5.60
2019-02-02T00:57:55.125Z,5.59
2019-02-02T01:00:28.142Z,5.55
2019-02-02T01:02:59.159Z,5.44
2019-02-02T01:05:31.499Z,5.50
2019-02-02T01:08:02.278Z,5.48
2019-02-02T01:10:33.915Z,5.45
2019-02-02T01:13:05.168Z,5.45
2019-02-02T01:15:36.076Z,5.40
2019-02-02T01:18:07.033Z,5.42
2019-02-02T01:20:37.583Z,5.47
2019-02-02T01:23:08.787Z,5.50
2019-02-02T01:25:39.486Z,5.52
2019-02-02T01:28:10.229Z,5.52
2019-02-02T01:30:40.928Z,5.58
2019-02-02T01:33:12.539Z,5.58
2019-02-02T01:35:43.282Z,5.60
2019-02-02T01:38:14.230Z,5.63
2019-02-02T01:40:45.312Z,5.67
2019-02-02T01:43:16.408Z,5.69
2019-02-02T01:45:47.274Z,5.62
2019-02-02T01:48:18.925Z,5.62
2019-02-02T01:50:49.471Z,5.55
2019-02-02T01:53:20.039Z,5.48
2019-02-02T01:55:51.006Z,5.41
2019-02-02T01:58:21.902Z,5.36
2019-02-02T02:00:54.569Z,5.25
2019-02-02T02:03:25.240Z,5.24
2019-02-02T02:05:56.837Z,5.16
2019-02-02T02:08:27.883Z,5.13
2019-02-02T02:10:58.563Z,5.09
2019-02-02T02:13:29.182Z,5.06
2019-02-02T02:16:01.836Z,5.04
2019-02-02T02:18:32.161Z,5.09
2019-02-02T02:21:02.562Z,5.11
2019-02-02T02:23:33.327Z,5.12
2019-02-02T02:26:04.942Z,5.10
2019-02-02T02:28:35.365Z,5.07
2019-02-02T02:31:05.872Z,5.06
2019-02-02T02:33:36.340Z,5.12
2019-02-02T02:36:06.828Z,5.18
2019-02-02T02:38:39.002Z,5.26
2019-02-02T02:41:09.827Z,5.27
2019-02-02T02:43:40.899Z,5.36
2019-02-02T02:46:11.556Z,5.39
2019-02-02T02:48:41.944Z,5.48
2019-02-02T02:51:12.970Z,5.54
2019-02-02T02:53:43.876Z,5.58
2019-02-02T02:56:14.492Z,5.64
2019-02-02T02:58:45.541Z,5.66
2019-02-02T03:01:17.277Z,5.67
2019-02-02T03:03:47.727Z,5.68
2019-02-02T03:06:19.800Z,5.65
2019-02-02T03:08:50.770Z,5.58
2019-02-02T03:11:21.732Z,5.58
2019-02-02T03:13:52.460Z,5.61
2019-02-02T03:16:26.163Z,5.59
2019-02-02T03:18:56.923Z,5.66
2019-02-02T03:21:27.650Z,5.68
2019-02-02T03:23:58.787Z,5.65
2019-02-02T03:26:29.253Z,5.69
2019-02-02T03:28:59.775Z,5.71
2019-02-02T03:31:30.373Z,5.79
2019-02-02T03:34:01.981Z,5.71
2019-02-02T03:36:32.746Z,5.60
2019-02-02T03:39:06.838Z,5.62
2019-02-02T03:41:37.432Z,5.59
2019-02-02T03:44:07.879Z,5.54
2019-02-02T03:46:38.722Z,5.58
2019-02-02T03:49:10.502Z,5.52
2019-02-02T03:51:41.195Z,5.56
2019-02-02T03:54:11.714Z,5.62
2019-02-02T03:56:42.694Z,5.62
2019-02-02T03:59:13.858Z,5.59
2019-02-02T04:01:45.708Z,5.55
2019-02-02T04:04:16.747Z,5.57
2019-02-02T04:06:48.064Z,5.57
2019-02-02T04:09:18.953Z,5.53
2019-02-02T04:11:50.351Z,5.50
2019-02-02T04:14:21.121Z,5.51
2019-02-02T04:16:52.016Z,5.43
2019-02-02T04:19:23.312Z,5.36
2019-02-02T04:21:53.979Z,5.31
2019-02-02T04:24:24.701Z,5.33
2019-02-02T04:26:55.117Z,5.28
2019-02-02T04:29:25.670Z,5.24
2019-02-02T04:31:57.790Z,5.18
2019-02-02T04:34:28.386Z,5.08
2019-02-02T04:36:58.960Z,5.08
2019-02-02T04:39:30.550Z,5.06
2019-02-02T04:42:01.125Z,5.07
2019-02-02T04:44:31.574Z,5.02
2019-02-02T04:47:02.534Z,5.02
2019-02-02T04:49:33.036Z,5.01
2019-02-02T04:52:03.556Z,4.97
2019-02-02T04:54:33.974Z,4.94
2019-02-02T04:57:04.492Z,4.91
2019-02-02T04:59:35.095Z,4.89
2019-02-02T05:02:06.640Z,4.86
2019-02-02T05:04:37.310Z,4.83
2019-02-02T05:07:08.048Z,4.82
2019-02-02T05:09:38.543Z,4.80
2019-02-02T05:12:09.315Z,4.76
2019-02-02T05:14:40.116Z,4.74
2019-02-02T05:17:11.044Z,4.74
2019-02-02T05:19:41.699Z,4.81
2019-02-02T05:22:12.429Z,4.90
2019-02-02T05:24:44.003Z,4.94
2019-02-02T05:27:15.049Z,4.97
2019-02-02T05:29:45.688Z,5.01
2019-02-02T05:32:16.324Z,4.98
2019-02-02T05:34:47.798Z,5.09
2019-02-02T05:37:18.551Z,5.10
2019-02-02T05:39:49.371Z,5.23
2019-02-02T05:42:20.244Z,5.25
2019-02-02T05:44:50.854Z,5.37
2019-02-02T05:47:21.057Z,5.54
2019-02-02T05:49:51.714Z,5.72
2019-02-02T05:52:22.185Z,5.91
2019-02-02T05:54:52.689Z,6.18
2019-02-02T05:57:23.372Z,6.55
2019-02-02T05:59:54.181Z,7.05
2019-02-02T06:02:25.751Z,7.53
2019-02-02T06:04:56.415Z,7.91
2019-02-02T06:07:27.312Z,8.43
2019-02-02T06:09:57.828Z,8.43
2019-02-02T06:12:28.936Z,8.61
2019-02-02T06:14:59.750Z,8.76
2019-02-02T06:17:30.751Z,8.84
2019-02-02T06:20:01.228Z,8.98
2019-02-02T06:22:32.267Z,8.98
2019-02-02T06:25:02.876Z,9.16
2019-02-02T06:27:33.294Z,9.16
2019-02-02T06:30:04.855Z,9.24
2019-02-02T06:32:37.055Z,9.24
2019-02-02T06:35:08.958Z,9.33
2019-02-02T06:37:39.702Z,9.31
2019-02-02T06:40:11.627Z,9.52
2019-02-02T06:42:42.613Z,9.52
2019-02-02T06:45:16.518Z,9.60
2019-02-02T06:47:47.470Z,9.60
2019-02-02T06:50:18.367Z,9.40
2019-02-02T06:52:49.156Z,9.52
2019-02-02T06:55:19.780Z,9.52
2019-02-02T06:57:50.294Z,9.64
2019-02-02T07:00:22.304Z,9.73
2019-02-02T07:02:53.876Z,9.76
2019-02-02T07:05:24.628Z,9.76
2019-02-02T07:08:14.137Z,9.74
2019-02-02T07:10:45.054Z,9.74
2019-02-02T07:13:15.916Z,9.61
2019-02-02T07:15:46.398Z,9.61
2019-02-02T07:18:17.038Z,9.69
2019-02-02T07:20:47.758Z,9.70
2019-02-02T07:23:18.475Z,9.80
2019-02-02T07:25:49.209Z,9.73
2019-02-02T07:28:20.054Z,9.73
2019-02-02T07:30:50.484Z,9.56
2019-02-02T07:33:21.033Z,9.62
2019-02-02T07:35:54.045Z,9.68
2019-02-02T07:38:23.881Z,9.85
2019-02-02T07:40:54.615Z,9.98
2019-02-02T07:43:25.239Z,9.79
2019-02-02T07:45:55.569Z,9.59
2019-02-02T07:48:26.297Z,9.62
2019-02-02T07:50:56.897Z,9.54
2019-02-02T07:53:27.831Z,9.54
2019-02-02T07:55:58.744Z,9.58
2019-02-02T07:58:29.324Z,9.51
2019-02-02T08:01:01.094Z,9.51
2019-02-02T08:03:32.978Z,9.17
2019-02-02T08:06:03.646Z,9.25
2019-02-02T08:08:34.164Z,9.34
2019-02-02T08:11:04.727Z,9.41
2019-02-02T08:13:35.900Z,9.41
2019-02-02T08:16:06.450Z,9.53
2019-02-02T08:18:36.798Z,9.69
2019-02-02T08:21:07.712Z,9.69
2019-02-02T08:23:39.949Z,9.87
2019-02-02T08:26:10.985Z,9.89
2019-02-02T08:28:42.306Z,9.80
2019-02-02T08:31:13.563Z,9.87
2019-02-02T08:33:45.407Z,10.00
2019-02-02T08:36:16.228Z,10.10
2019-02-02T08:38:46.644Z,10.25
2019-02-02T08:41:17.665Z,10.22
2019-02-02T08:43:48.193Z,10.33
2019-02-02T08:46:18.529Z,10.35
2019-02-02T08:48:49.054Z,10.41
2019-02-02T08:51:20.261Z,10.54
2019-02-02T08:53:52.002Z,10.57
2019-02-02T08:56:22.797Z,10.67
2019-02-02T08:58:53.487Z,10.73
2019-02-02T09:01:24.221Z,10.67
2019-02-02T09:03:57.137Z,10.69
2019-02-02T09:06:38.508Z,10.86
2019-02-02T09:09:00.614Z,10.94
2019-02-02T09:11:31.340Z,10.94
2019-02-02T09:14:01.883Z,11.08
2019-02-02T09:16:32.331Z,11.19
2019-02-02T09:19:02.873Z,11.14
2019-02-02T09:21:34.712Z,11.22
2019-02-02T09:24:05.451Z,11.31
2019-02-02T09:26:35.734Z,11.19
2019-02-02T09:29:06.614Z,11.08
2019-02-02T09:31:37.260Z,10.82
2019-02-02T09:34:09.891Z,11.03
2019-02-02T09:36:40.766Z,11.11
2019-02-02T09:39:11.456Z,10.93
2019-02-02T09:41:42.492Z,10.99
2019-02-02T09:44:13.479Z,11.03
2019-02-02T09:46:44.347Z,10.87
2019-02-02T09:49:14.997Z,10.93
2019-02-02T09:51:45.893Z,10.88
2019-02-02T09:54:26.450Z,10.91
2019-02-02T09:56:49.194Z,10.81
2019-02-02T09:59:19.682Z,10.02
2019-02-02T10:01:50.772Z,9.97
2019-02-02T10:04:22.291Z,9.97
2019-02-02T10:06:52.521Z,9.92
2019-02-02T10:09:23.467Z,10.01
2019-02-02T10:11:54.119Z,10.19
2019-02-02T10:14:24.855Z,10.19
2019-02-02T10:16:55.412Z,10.37
2019-02-02T10:19:26.150Z,10.47
2019-02-02T10:21:56.482Z,10.50
2019-02-02T10:24:28.664Z,10.54
2019-02-02T10:26:59.381Z,10.62
2019-02-02T10:29:29.955Z,10.67
2019-02-02T10:32:00.396Z,10.49
2019-02-02T10:34:30.979Z,10.66
2019-02-02T10:37:01.538Z,10.70
2019-02-02T10:39:31.708Z,10.67
2019-02-02T10:42:02.823Z,10.55
2019-02-02T10:44:33.068Z,10.60
2019-02-02T10:47:03.527Z,10.13
2019-02-02T10:49:34.341Z,10.46
2019-02-02T10:52:05.245Z,10.58
2019-02-02T10:54:35.908Z,10.63
2019-02-02T10:57:06.782Z,10.83
2019-02-02T10:59:37.401Z,10.99
2019-02-02T11:02:08.270Z,10.99
2019-02-02T11:04:42.836Z,10.88
2019-02-02T11:07:13.556Z,10.61
2019-02-02T11:09:44.199Z,10.62
2019-02-02T11:12:14.776Z,10.70
2019-02-02T11:14:45.281Z,10.54
2019-02-02T11:17:18.679Z,10.66
2019-02-02T11:19:49.531Z,10.88
2019-02-02T11:22:20.050Z,10.74
2019-02-02T11:24:50.725Z,10.89
2019-02-02T11:27:26.897Z,11.13
2019-02-02T11:29:57.579Z,11.21
2019-02-02T11:32:27.935Z,11.39
2019-02-02T11:34:58.784Z,11.40
2019-02-02T11:37:29.507Z,11.57
2019-02-02T11:40:00.335Z,11.72
2019-02-02T11:42:30.982Z,11.82
2019-02-02T11:45:01.782Z,11.93
2019-02-02T11:47:32.605Z,11.93
2019-02-02T11:50:03.084Z,12.07
2019-02-02T11:52:34.992Z,12.29
2019-02-02T11:55:05.994Z,12.18
2019-02-02T11:57:37.206Z,11.82
2019-02-02T12:00:16.286Z,12.04
2019-02-02T12:02:49.372Z,12.23
2019-02-02T12:05:20.188Z,12.30
2019-02-02T12:07:50.931Z,12.46
2019-02-02T12:10:25.774Z,12.46
2019-02-02T12:12:56.270Z,12.34
2019-02-02T12:15:26.899Z,12.20
2019-02-02T12:17:58.358Z,12.35
2019-02-02T12:20:32.961Z,12.13
2019-02-02T12:23:03.298Z,12.19
2019-02-02T12:25:33.983Z,12.22
2019-02-02T12:28:05.622Z,12.11
2019-02-02T12:30:37.472Z,11.97
2019-02-02T12:33:09.146Z,11.87
2019-02-02T12:35:40.721Z,12.02
2019-02-02T12:38:14.715Z,12.24
2019-02-02T12:40:45.204Z,12.38
2019-02-02T12:43:15.659Z,12.47
2019-02-02T12:45:49.353Z,12.26
2019-02-02T12:48:20.047Z,12.26
2019-02-02T12:50:51.108Z,12.24
2019-02-02T12:53:22.170Z,11.94
2019-02-02T12:55:53.217Z,11.77
2019-02-02T12:58:23.743Z,11.98
2019-02-02T13:00:54.360Z,12.07
2019-02-02T13:03:26.549Z,12.13
2019-02-02T13:05:59.362Z,11.92
2019-02-02T13:08:29.793Z,11.98
2019-02-02T13:11:00.443Z,11.92
2019-02-02T13:13:31.099Z,11.90
2019-02-02T13:16:01.733Z,11.98
2019-02-02T13:18:32.494Z,11.63
2019-02-02T13:21:02.893Z,11.61
2019-02-02T13:23:33.559Z,11.56
2019-02-02T13:26:05.756Z,11.45
2019-02-02T13:28:36.626Z,11.42
2019-02-02T13:31:07.203Z,11.33
2019-02-02T13:33:38.056Z,11.41
2019-02-02T13:36:09.130Z,11.08
2019-02-02T13:38:40.196Z,10.93
2019-02-02T13:41:10.840Z,10.93
2019-02-02T13:43:41.753Z,10.81
2019-02-02T13:46:13.752Z,10.89
2019-02-02T13:48:44.830Z,10.69
2019-02-02T13:51:15.351Z,10.77
2019-02-02T13:53:46.156Z,10.79
2019-02-02T13:56:18.549Z,10.89
2019-02-02T13:58:50.792Z,10.97
2019-02-02T14:01:21.448Z,10.93
2019-02-02T14:03:52.032Z,10.88
2019-02-02T14:06:23.768Z,10.63
2019-02-02T14:08:54.461Z,10.65
2019-02-02T14:11:24.961Z,10.48
2019-02-02T14:13:55.782Z,10.14
2019-02-02T14:16:26.358Z,10.14
2019-02-02T14:18:56.929Z,10.00
2019-02-02T14:21:27.800Z,10.07
2019-02-02T14:23:58.498Z,10.02
2019-02-02T14:26:29.309Z,10.06
2019-02-02T14:28:59.872Z,9.89
2019-02-02T14:31:30.392Z,9.92
2019-02-02T14:34:01.272Z,9.92
2019-02-02T14:36:32.340Z,9.86
2019-02-02T14:39:05.863Z,9.99
2019-02-02T14:41:38.483Z,9.92
2019-02-02T14:44:09.733Z,9.92
2019-02-02T14:46:40.708Z,9.69
2019-02-02T14:49:13.115Z,9.74
2019-02-02T14:51:44.291Z,9.74
2019-02-02T14:54:15.293Z,9.85
2019-02-02T14:56:48.174Z,10.01
2019-02-02T14:59:18.748Z,9.97
2019-02-02T15:01:49.515Z,9.97
2019-02-02T15:04:20.597Z,9.84
2019-02-02T15:06:52.603Z,9.88
2019-02-02T15:09:26.059Z,9.83
2019-02-02T15:11:55.937Z,9.83
2019-02-02T15:14:28.935Z,9.79
2019-02-02T15:16:59.528Z,9.73
2019-02-02T15:19:31.062Z,9.73
2019-02-02T15:22:01.331Z,9.71
2019-02-02T15:24:33.071Z,9.69
2019-02-02T15:27:04.046Z,9.67
2019-02-02T15:29:34.522Z,9.67
2019-02-02T15:32:05.072Z,9.68
2019-02-02T15:34:35.651Z,9.73
2019-02-02T15:37:07.540Z,9.89
2019-02-02T15:39:38.387Z,9.90
2019-02-02T15:42:08.948Z,9.95
2019-02-02T15:44:40.241Z,9.99
2019-02-02T15:47:11.242Z,9.99
2019-02-02T15:49:41.868Z,10.02
2019-02-02T15:52:13.737Z,10.02
2019-02-02T15:54:44.417Z,10.00
2019-02-02T15:57:16.386Z,10.00
2019-02-02T15:59:47.698Z,9.99
2019-02-02T16:02:18.349Z,9.99
2019-02-02T16:04:50.531Z,10.00
2019-02-02T16:07:22.205Z,10.01
2019-02-02T16:09:52.747Z,10.01
2019-02-02T16:12:23.220Z,10.02
2019-02-02T16:14:53.785Z,10.05
2019-02-02T16:17:24.500Z,10.05
2019-02-02T16:19:55.038Z,10.05
2019-02-02T16:22:25.532Z,10.05
2019-02-02T16:24:56.329Z,10.11
2019-02-02T16:27:27.045Z,10.05
2019-02-02T16:29:57.677Z,10.01
2019-02-02T16:32:28.189Z,9.88
2019-02-02T16:34:58.627Z,9.85
2019-02-02T16:37:28.797Z,9.85
2019-02-02T16:39:59.079Z,9.65
2019-02-02T16:42:29.907Z,9.64
2019-02-02T16:45:00.594Z,9.64
2019-02-02T16:47:30.804Z,9.61
2019-02-02T16:50:01.964Z,9.61
2019-02-02T16:52:32.479Z,9.52
2019-02-02T16:55:00.750Z,9.62
2019-02-02T16:57:31.970Z,9.69
2019-02-02T17:00:03.292Z,9.64
2019-02-02T17:02:33.917Z,9.64
2019-02-02T17:05:05.235Z,9.65
2019-02-02T17:07:36.683Z,9.63
2019-02-02T17:10:10.916Z,9.63
2019-02-02T17:12:42.074Z,9.62
2019-02-02T17:15:12.946Z,9.62
2019-02-02T17:17:44.501Z,9.62
2019-02-02T17:20:17.363Z,9.55
2019-02-02T17:22:48.932Z,9.52
2019-02-02T17:25:22.771Z,9.38
2019-02-02T17:27:53.310Z,9.38
2019-02-02T17:30:24.364Z,9.23
2019-02-02T17:32:56.998Z,9.23
2019-02-02T17:35:34.308Z,9.27
2019-02-02T17:38:07.938Z,9.26
2019-02-02T17:40:38.593Z,9.21
2019-02-02T17:43:11.455Z,9.21
2019-02-02T17:48:13.774Z,9.22
2019-02-02T17:50:45.194Z,9.22
2019-02-02T17:53:15.286Z,9.21
2019-02-02T17:55:46.007Z,9.21
2019-02-02T17:58:18.141Z,9.20
2019-02-02T18:00:52.650Z,9.22
2019-02-02T18:03:23.974Z,9.15
2019-02-02T18:05:55.104Z,9.15
2019-02-02T18:08:26.359Z,9.06
2019-02-02T18:10:57.424Z,9.04
2019-02-02T18:13:28.637Z,9.07
2019-02-02T18:18:42.851Z,9.05
2019-02-02T18:21:13.725Z,9.02
2019-02-02T18:23:45.212Z,8.99
2019-02-02T18:26:15.980Z,8.98
2019-02-02T18:28:47.747Z,8.96
2019-02-02T18:31:21.514Z,8.90
2019-02-02T18:33:54.736Z,8.99
2019-02-02T18:36:25.158Z,8.97
2019-02-02T18:38:56.024Z,9.02
2019-02-02T18:41:27.198Z,9.06
2019-02-02T18:43:57.926Z,9.00
2019-02-02T18:46:28.358Z,8.99
2019-02-02T18:48:59.056Z,9.06
2019-02-02T18:51:30.668Z,9.12
2019-02-02T18:54:02.749Z,9.19
2019-02-02T18:56:33.213Z,9.19
2019-02-02T18:59:04.152Z,9.30
2019-02-02T19:01:35.496Z,9.30
2019-02-02T19:04:08.627Z,9.50
2019-02-02T19:06:40.178Z,9.50
2019-02-02T19:09:14.434Z,9.54
2019-02-02T19:11:44.918Z,9.57
2019-02-02T19:14:15.940Z,9.57
2019-02-02T19:16:46.876Z,9.58
2019-02-02T19:19:17.467Z,9.58
2019-02-02T19:21:47.840Z,9.57
2019-02-02T19:24:18.741Z,9.57
2019-02-02T19:26:49.695Z,9.60
2019-02-02T19:29:20.985Z,9.64
2019-02-02T19:31:53.058Z,9.65
2019-02-02T19:34:23.585Z,9.62
2019-02-02T19:36:54.117Z,9.68
2019-02-02T19:39:25.222Z,9.68
2019-02-02T19:41:58.609Z,9.72
2019-02-02T19:44:29.331Z,9.72
2019-02-02T19:47:00.601Z,9.67
2019-02-02T19:49:32.644Z,9.70
2019-02-02T19:52:03.988Z,9.61
2019-02-02T19:54:35.890Z,9.65
2019-02-02T19:57:07.732Z,9.65
2019-02-02T19:59:38.975Z,9.61
2019-02-02T20:02:10.112Z,9.61
2019-02-02T20:04:40.801Z,9.56
2019-02-02T20:07:11.798Z,9.56
2019-02-02T20:09:43.656Z,9.46
2019-02-02T20:12:14.580Z,9.44
2019-02-02T20:14:45.308Z,9.35
2019-02-02T20:17:15.967Z,9.26
2019-02-02T20:19:47.911Z,9.31
2019-02-02T20:22:18.630Z,9.31
2019-02-02T20:24:49.195Z,9.36
2019-02-02T20:27:19.925Z,9.37
2019-02-02T20:29:50.632Z,9.38
2019-02-02T20:32:21.140Z,9.35
2019-02-02T20:34:52.081Z,9.16
2019-02-02T20:37:22.800Z,9.17
2019-02-02T20:39:53.335Z,9.14
2019-02-02T20:42:24.112Z,9.12
2019-02-02T20:44:55.330Z,9.15
2019-02-02T20:47:26.174Z,9.17
2019-02-02T20:49:57.255Z,9.17
2019-02-02T20:52:27.708Z,9.09
2019-02-02T20:54:58.489Z,8.96
2019-02-02T20:57:29.021Z,9.01
2019-02-02T20:59:59.480Z,8.96
2019-02-02T21:02:29.892Z,8.99
2019-02-02T21:04:59.995Z,8.98
2019-02-02T21:07:30.566Z,9.01
2019-02-02T21:10:02.067Z,8.92
2019-02-02T21:12:32.464Z,9.01
2019-02-02T21:15:03.916Z,9.00
2019-02-02T21:17:34.448Z,9.01
2019-02-02T21:20:06.506Z,9.02
2019-02-02T21:22:37.258Z,9.07
2019-02-02T21:25:09.017Z,8.98
2019-02-02T21:27:40.331Z,9.11
2019-02-02T21:30:18.009Z,9.11
2019-02-02T21:32:48.880Z,9.18
2019-02-02T21:35:19.600Z,9.20
2019-02-02T21:37:50.438Z,9.19
2019-02-02T21:40:22.889Z,9.18
2019-02-02T21:42:53.468Z,8.96
2019-02-02T21:45:24.073Z,8.96
2019-02-02T21:47:55.980Z,8.94
2019-02-02T21:50:27.265Z,8.95
2019-02-02T21:52:58.394Z,8.88
2019-02-02T21:55:29.613Z,8.88
2019-02-02T21:58:00.244Z,8.81
2019-02-02T22:00:39.607Z,8.68
2019-02-02T22:03:10.512Z,8.64
2019-02-02T22:05:41.517Z,8.57
2019-02-02T22:08:15.186Z,8.47
2019-02-02T22:10:47.057Z,8.42
2019-02-02T22:13:17.711Z,8.30
2019-02-02T22:15:48.560Z,8.31
2019-02-02T22:18:21.713Z,8.28
2019-02-02T22:20:50.880Z,8.27
2019-02-02T22:23:21.001Z,8.22
2019-02-02T22:25:51.531Z,8.23
2019-02-02T22:28:22.421Z,8.21
2019-02-02T22:30:53.140Z,8.14
2019-02-02T22:33:25.175Z,8.01
2019-02-02T22:35:55.701Z,7.99
2019-02-02T22:38:26.208Z,8.02
2019-02-02T22:40:56.674Z,8.03
2019-02-02T22:43:27.218Z,8.04
2019-02-02T22:45:58.143Z,8.08
2019-02-02T22:48:28.542Z,8.13
2019-02-02T22:50:58.964Z,8.16
2019-02-02T22:53:29.840Z,8.18
2019-02-02T22:56:00.026Z,8.21
2019-02-02T22:58:30.461Z,8.25
2019-02-02T23:01:47.437Z,8.29
2019-02-02T23:04:29.813Z,8.31
2019-02-02T23:07:18.721Z,8.38
2019-02-02T23:10:28.385Z,8.43
2019-02-02T23:13:30.808Z,8.50
2019-02-02T23:16:24.850Z,8.54
2019-02-02T23:18:56.133Z,8.62
2019-02-02T23:21:27.280Z,8.56
2019-02-02T23:23:58.224Z,8.70
2019-02-02T23:26:29.143Z,8.80
2019-02-02T23:28:59.367Z,8.85
2019-02-02T23:31:29.880Z,8.86
2019-02-02T23:34:00.246Z,8.91
2019-02-02T23:36:30.689Z,8.93
2019-02-02T23:39:01.252Z,8.95
2019-02-02T23:41:32.471Z,8.97
2019-02-02T23:44:02.906Z,8.95
2019-02-02T23:46:33.577Z,9.02
2019-02-02T23:49:04.473Z,8.95
2019-02-02T23:51:34.921Z,8.95
2019-02-02T23:54:05.604Z,9.05
2019-02-02T23:56:36.337Z,9.06
2019-02-02T23:59:09.545Z,9.17
